Time;durP1;ratioP1;P1;durP2;ratioP2;P2;SDS_P1;SDS_P2;PMS_P1;PMS_P2;Temp;Humidity;BMP_temperature;BMP_pressure;BME280_temperature;BME280_humidity;BME280_pressure;Samples;Min_cycle;Max_cycle;Signal;HPM_P1;HPM_P2
2021/09/28 00:02:00;;;;;;;5.68;1.70;;;;;;;10.14;100.00;101585.97;5028584;28;20380;-73
2021/09/28 00:04:29;;;;;;;4.38;1.23;;;;;;;10.03;100.00;101578.94;5030127;28;20263;-73
2021/09/28 00:07:15;;;;;;;6.15;1.30;;;;;;;10.02;100.00;101585.25;5027145;28;20380;-73
2021/09/28 00:09:43;;;;;;;5.55;1.38;;;;;;;10.20;100.00;101588.06;5027183;28;20069;-73
2021/09/28 00:12:11;;;;;;;8.57;1.38;;;;;;;10.07;100.00;101587.50;5028585;28;20044;-73
2021/09/28 00:14:39;;;;;;;7.93;1.48;;;;;;;10.24;100.00;101578.78;5029506;28;20388;-74
2021/09/28 00:17:07;;;;;;;6.43;1.13;;;;;;;10.26;100.00;101595.50;5025998;28;20087;-74
2021/09/28 00:19:35;;;;;;;9.90;1.50;;;;;;;10.31;100.00;101584.41;5026021;28;20426;-73
2021/09/28 00:22:03;;;;;;;5.13;1.30;;;;;;;10.34;100.00;101581.47;5029390;28;20131;-73
2021/09/28 00:24:33;;;;;;;6.93;1.40;;;;;;;10.29;100.00;101583.69;5029020;28;20053;-74
2021/09/28 00:27:01;;;;;;;4.90;1.50;;;;;;;10.10;100.00;101588.06;5030293;28;20069;-74
2021/09/28 00:29:29;;;;;;;4.35;1.20;;;;;;;10.26;100.00;101583.97;5026662;28;20311;-74
2021/09/28 00:31:57;;;;;;;4.07;1.10;;;;;;;10.32;100.00;101581.59;5027443;28;20046;-73
2021/09/28 00:34:26;;;;;;;5.00;1.30;;;;;;;10.35;100.00;101583.16;5027663;28;20072;-74
2021/09/28 00:36:53;;;;;;;5.00;1.27;;;;;;;10.53;100.00;101587.75;5027190;28;20052;-74
2021/09/28 00:39:21;;;;;;;5.65;1.70;;;;;;;10.41;100.00;101587.94;5029251;28;20044;-73
2021/09/28 00:41:51;;;;;;;5.55;1.50;;;;;;;10.14;100.00;101586.78;5028935;28;20069;-73
2021/09/28 00:44:30;;;;;;;5.47;1.55;;;;;;;10.12;100.00;101585.25;5028858;28;20539;-74
2021/09/28 00:46:58;;;;;;;16.30;1.98;;;;;;;10.19;100.00;101586.34;5024331;28;20053;-73
2021/09/28 00:49:26;;;;;;;5.85;1.52;;;;;;;10.07;100.00;101591.00;5026174;28;20053;-74
2021/09/28 00:51:54;;;;;;;4.30;1.77;;;;;;;10.04;100.00;101590.47;5029155;28;20107;-74
2021/09/28 00:54:22;;;;;;;4.13;1.13;;;;;;;10.14;100.00;101596.63;5025255;28;20512;-74
2021/09/28 00:56:51;;;;;;;6.05;1.13;;;;;;;10.02;100.00;101609.25;5028644;28;20122;-74
2021/09/28 00:59:19;;;;;;;4.88;1.35;;;;;;;9.83;100.00;101610.09;5024905;28;20052;-73
2021/09/28 01:01:48;;;;;;;3.30;1.35;;;;;;;9.75;100.00;101617.94;5028007;28;20107;-74
2021/09/28 01:04:17;;;;;;;7.07;1.13;;;;;;;9.74;100.00;101621.59;5029581;28;20049;-73
2021/09/28 01:06:45;;;;;;;2.90;1.25;;;;;;;9.57;100.00;101623.97;5027073;28;20052;-74
2021/09/28 01:09:13;;;;;;;6.63;1.05;;;;;;;9.49;100.00;101637.13;5025041;28;20041;-74
2021/09/28 01:11:41;;;;;;;4.22;1.50;;;;;;;9.37;100.00;101632.88;5025568;28;20068;-74
2021/09/28 01:14:10;;;;;;;8.85;2.20;;;;;;;9.60;100.00;101636.19;5027453;28;20049;-73
2021/09/28 01:16:38;;;;;;;6.35;1.60;;;;;;;9.53;100.00;101635.06;5023440;28;20433;-74
2021/09/28 01:19:06;;;;;;;6.68;1.40;;;;;;;9.21;100.00;101641.38;5024206;28;20049;-73
2021/09/28 01:21:36;;;;;;;4.20;1.55;;;;;;;9.18;100.00;101642.47;5027192;28;20076;-74
2021/09/28 01:24:05;;;;;;;5.53;1.52;;;;;;;9.15;100.00;101642.75;5024376;28;20111;-74
2021/09/28 01:26:33;;;;;;;9.25;2.20;;;;;;;9.17;100.00;101640.81;5027841;28;20469;-73
2021/09/28 01:29:02;;;;;;;2.90;1.58;;;;;;;9.23;100.00;101644.78;5023431;28;20049;-74
2021/09/28 01:31:31;;;;;;;4.45;1.60;;;;;;;9.14;100.00;101638.41;5027024;28;20357;-73
2021/09/28 01:33:59;;;;;;;3.53;1.75;;;;;;;9.00;100.00;101642.28;5026075;28;20124;-73
2021/09/28 01:36:27;;;;;;;5.22;1.80;;;;;;;8.80;100.00;101633.31;5022156;28;20053;-73
2021/09/28 01:38:56;;;;;;;4.90;1.60;;;;;;;8.66;100.00;101636.31;5024426;28;20075;-73
2021/09/28 01:41:24;;;;;;;6.63;2.05;;;;;;;8.96;100.00;101635.53;5023562;28;20037;-73
2021/09/28 01:44:07;;;;;;;9.13;2.78;;;;;;;8.93;100.00;101633.09;5027982;28;20131;-75
2021/09/28 01:46:37;;;;;;;2.88;1.27;;;;;;;9.17;100.00;101638.16;5024974;28;20057;-73
2021/09/28 01:49:05;;;;;;;5.68;1.27;;;;;;;9.08;100.00;101636.28;5021298;28;20099;-73
2021/09/28 01:51:33;;;;;;;4.80;1.35;;;;;;;8.99;100.00;101632.59;5025289;28;20049;-74
2021/09/28 01:54:05;;;;;;;5.18;1.60;;;;;;;9.03;100.00;101633.16;5022006;28;20048;-73
2021/09/28 01:56:33;;;;;;;4.65;1.33;;;;;;;9.20;100.00;101637.88;5025798;28;20338;-73
2021/09/28 01:59:02;;;;;;;4.00;1.00;;;;;;;9.10;100.00;101635.19;5023537;28;20293;-73
2021/09/28 02:01:30;;;;;;;4.07;1.15;;;;;;;9.07;100.00;101630.13;5022948;28;20034;-73
2021/09/28 02:03:59;;;;;;;5.68;2.13;;;;;;;9.13;100.00;101642.06;5027384;28;20144;-73
2021/09/28 02:06:29;;;;;;;9.73;1.80;;;;;;;9.06;100.00;101633.75;5029218;28;20053;-73
2021/09/28 02:08:57;;;;;;;5.90;1.42;;;;;;;9.09;100.00;101635.31;5028126;28;20091;-73
2021/09/28 02:11:27;;;;;;;5.28;1.38;;;;;;;9.11;100.00;101636.88;5029660;28;20045;-74
2021/09/28 02:13:54;;;;;;;6.10;1.45;;;;;;;9.47;100.00;101636.44;5027417;28;20103;-73
2021/09/28 02:16:22;;;;;;;4.60;2.28;;;;;;;9.42;100.00;101636.00;5030152;28;20053;-73
2021/09/28 02:18:50;;;;;;;3.63;1.83;;;;;;;9.26;100.00;101633.84;5025785;28;20053;-74
2021/09/28 02:21:18;;;;;;;3.63;1.10;;;;;;;9.04;100.00;101630.34;5030048;28;20049;-74
2021/09/28 02:23:46;;;;;;;11.40;1.63;;;;;;;9.32;100.00;101624.47;5030633;28;20099;-74
2021/09/28 02:26:14;;;;;;;5.25;1.77;;;;;;;9.44;100.00;101632.22;5028135;28;20072;-73
2021/09/28 02:28:44;;;;;;;7.00;1.38;;;;;;;9.23;100.00;101632.28;5027739;28;20305;-74
2021/09/28 02:31:11;;;;;;;5.00;1.40;;;;;;;9.23;100.00;101623.44;5030533;28;20048;-74
2021/09/28 02:33:40;;;;;;;5.07;1.40;;;;;;;9.23;100.00;101620.78;5029359;28;20037;-74
2021/09/28 02:36:07;;;;;;;7.75;1.35;;;;;;;9.54;100.00;101621.56;5029623;28;20095;-72
2021/09/28 02:38:35;;;;;;;4.88;1.77;;;;;;;9.52;100.00;101620.84;5026507;28;20041;-73
2021/09/28 02:41:03;;;;;;;3.65;1.35;;;;;;;9.29;100.00;101626.41;5030074;28;20057;-73
2021/09/28 02:43:31;;;;;;;5.50;1.73;;;;;;;9.28;100.00;101624.69;5027336;28;20088;-74
2021/09/28 02:46:01;;;;;;;3.97;1.40;;;;;;;9.25;100.00;101630.31;5028409;28;20088;-74
2021/09/28 02:48:30;;;;;;;4.75;1.65;;;;;;;9.55;100.00;101617.06;5025300;28;20069;-74
2021/09/28 02:50:57;;;;;;;6.18;1.50;;;;;;;9.52;100.00;101620.84;5029021;28;20049;-73
2021/09/28 02:53:25;;;;;;;9.35;1.90;;;;;;;9.63;100.00;101626.06;5031237;28;20045;-74
2021/09/28 02:55:53;;;;;;;4.53;1.48;;;;;;;9.65;100.00;101618.78;5026965;28;20052;-73
2021/09/28 02:58:21;;;;;;;3.25;1.25;;;;;;;9.62;100.00;101624.38;5023778;28;20499;-73
2021/09/28 03:00:49;;;;;;;6.88;1.42;;;;;;;9.34;100.00;101625.16;5027298;28;20046;-72
2021/09/28 03:03:19;;;;;;;6.07;1.13;;;;;;;9.15;100.00;101621.44;5028441;28;20042;-74
2021/09/28 03:05:48;;;;;;;4.95;1.73;;;;;;;9.15;100.00;101628.59;5029651;28;20224;-73
2021/09/28 03:08:16;;;;;;;6.15;1.73;;;;;;;9.06;100.00;101625.75;5026693;28;20445;-71
2021/09/28 03:10:44;;;;;;;6.85;1.60;;;;;;;9.04;100.00;101629.53;5030092;28;20064;-72
2021/09/28 03:13:12;;;;;;;4.95;2.22;;;;;;;9.24;100.00;101625.97;5028834;28;20381;-73
2021/09/28 03:15:40;;;;;;;6.20;1.27;;;;;;;9.19;100.00;101622.03;5026598;28;20119;-74
2021/09/28 03:18:08;;;;;;;7.18;1.92;;;;;;;8.99;100.00;101626.41;5024304;28;20034;-74
2021/09/28 03:20:37;;;;;;;9.63;1.60;;;;;;;8.94;100.00;101634.81;5028249;28;20330;-74
2021/09/28 03:23:05;;;;;;;5.03;1.60;;;;;;;8.88;100.00;101632.69;5028837;28;20472;-73
2021/09/28 03:25:35;;;;;;;5.43;1.73;;;;;;;8.80;100.00;101649.31;5027895;28;20389;-73
2021/09/28 03:28:03;;;;;;;6.65;1.42;;;;;;;8.86;100.00;101637.28;5027271;28;20042;-74
2021/09/28 03:30:31;;;;;;;6.10;1.75;;;;;;;8.77;100.00;101654.91;5029516;28;20053;-74
2021/09/28 03:32:59;;;;;;;4.68;1.98;;;;;;;8.71;100.00;101639.44;5027723;28;20049;-74
2021/09/28 03:35:27;;;;;;;3.60;1.95;;;;;;;8.78;100.00;101640.63;5028677;28;20072;-73
2021/09/28 03:37:56;;;;;;;7.93;1.77;;;;;;;8.69;100.00;101642.25;5024610;28;20103;-74
2021/09/28 03:40:25;;;;;;;3.97;2.05;;;;;;;8.59;100.00;101643.97;5026185;28;20128;-74
2021/09/28 03:42:53;;;;;;;6.40;2.13;;;;;;;8.51;100.00;101643.81;5028978;28;20223;-74
2021/09/28 03:45:21;;;;;;;6.22;2.20;;;;;;;8.37;100.00;101643.09;5026262;28;20042;-73
2021/09/28 03:47:50;;;;;;;9.55;2.10;;;;;;;8.27;100.00;101644.84;5029261;28;20049;-74
2021/09/28 03:50:17;;;;;;;6.53;1.80;;;;;;;8.20;100.00;101652.50;5026650;28;20060;-73
2021/09/28 03:52:45;;;;;;;3.05;1.30;;;;;;;8.14;100.00;101657.47;5027981;28;20099;-74
2021/09/28 03:55:19;;;;;;;4.47;1.73;;;;;;;8.23;100.00;101657.56;5026764;28;20045;-73
2021/09/28 03:57:47;;;;;;;7.88;2.72;;;;;;;8.14;100.00;101653.00;5024650;28;20552;-74
2021/09/28 04:00:16;;;;;;;6.95;1.70;;;;;;;8.12;100.00;101662.09;5024937;28;20045;-74
2021/09/28 04:02:44;;;;;;;6.72;1.73;;;;;;;8.43;100.00;101658.56;5023255;28;20087;-74
2021/09/28 04:05:13;;;;;;;3.42;1.60;;;;;;;8.42;100.00;101658.69;5028992;28;20318;-74
2021/09/28 04:07:41;;;;;;;5.07;1.83;;;;;;;8.52;100.00;101653.47;5027165;28;20430;-74
2021/09/28 04:10:10;;;;;;;5.07;1.73;;;;;;;8.37;100.00;101652.91;5026080;28;20080;-74
2021/09/28 04:12:40;;;;;;;3.80;2.13;;;;;;;8.18;100.00;101649.13;5029078;28;20041;-74
2021/09/28 04:15:08;;;;;;;3.63;2.05;;;;;;;8.16;100.00;101650.22;5027491;28;20046;-75
2021/09/28 04:17:36;;;;;;;7.15;2.22;;;;;;;8.22;100.00;101644.38;5023793;28;20092;-74
2021/09/28 04:20:06;;;;;;;4.50;2.05;;;;;;;8.33;100.00;101648.81;5025938;28;20103;-74
2021/09/28 04:22:34;;;;;;;8.95;2.40;;;;;;;8.27;100.00;101648.34;5026703;28;20064;-74
2021/09/28 04:25:04;;;;;;;4.25;1.88;;;;;;;8.14;100.00;101653.00;5027373;28;20045;-74
2021/09/28 04:27:32;;;;;;;5.75;1.92;;;;;;;7.98;100.00;101658.75;5024537;28;20041;-74
2021/09/28 04:30:01;;;;;;;8.13;2.00;;;;;;;7.90;100.00;101651.38;5023612;28;20041;-73
2021/09/28 04:32:29;;;;;;;6.90;2.33;;;;;;;8.00;100.00;101659.47;5022194;28;20534;-73
2021/09/28 04:34:57;;;;;;;7.53;2.45;;;;;;;7.92;100.00;101661.91;5026322;28;20057;-73
2021/09/28 04:37:25;;;;;;;7.72;2.28;;;;;;;8.16;100.00;101667.00;5025762;28;20326;-73
2021/09/28 04:39:53;;;;;;;7.18;2.10;;;;;;;8.09;100.00;101660.50;5023718;28;20052;-73
2021/09/28 04:42:20;;;;;;;7.30;2.08;;;;;;;8.08;100.00;101658.81;5026813;28;20046;-74
2021/09/28 04:44:48;;;;;;;6.95;1.90;;;;;;;8.05;100.00;101659.94;5026113;28;20048;-74
2021/09/28 04:47:18;;;;;;;11.90;2.38;;;;;;;8.07;100.00;101670.44;5024404;28;20049;-74
2021/09/28 04:49:46;;;;;;;10.32;2.63;;;;;;;8.00;100.00;101669.25;5024793;28;20041;-74
2021/09/28 04:52:13;;;;;;;6.05;2.65;;;;;;;8.07;100.00;101670.44;5025060;28;20037;-74
2021/09/28 04:54:41;;;;;;;7.95;2.58;;;;;;;8.10;100.00;101670.19;5023471;28;20056;-73
2021/09/28 04:57:09;;;;;;;8.07;2.63;;;;;;;8.20;100.00;101665.78;5023648;28;20335;-73
2021/09/28 04:59:37;;;;;;;9.38;2.58;;;;;;;8.22;100.00;101663.00;5021504;28;20060;-73
2021/09/28 05:02:05;;;;;;;6.60;2.13;;;;;;;8.12;100.00;101657.59;5026098;28;20041;-74
2021/09/28 05:04:35;;;;;;;10.05;3.10;;;;;;;8.13;100.00;101667.28;5023236;28;20044;-73
2021/09/28 05:07:03;;;;;;;6.55;2.75;;;;;;;8.07;100.00;101665.97;5023814;28;20046;-73
2021/09/28 05:09:32;;;;;;;10.35;2.60;;;;;;;8.10;100.00;101656.88;5023059;28;20400;-73
2021/09/28 05:12:00;;;;;;;6.53;2.63;;;;;;;7.95;100.00;101660.81;5026123;28;20053;-74
2021/09/28 05:14:28;;;;;;;10.15;2.45;;;;;;;7.84;100.00;101664.31;5025260;28;20049;-74
2021/09/28 05:16:56;;;;;;;9.27;2.35;;;;;;;7.87;100.00;101667.59;5024674;28;20076;-73
2021/09/28 05:19:24;;;;;;;7.38;3.55;;;;;;;7.89;100.00;101662.16;5024005;28;20046;-74
2021/09/28 05:21:53;;;;;;;8.55;2.60;;;;;;;7.97;100.00;101658.84;5027673;28;20053;-73
2021/09/28 05:24:22;;;;;;;8.00;2.55;;;;;;;7.87;100.00;101653.47;5025606;28;20037;-73
2021/09/28 05:26:50;;;;;;;6.53;2.47;;;;;;;7.86;100.00;101668.56;5025525;28;20068;-74
2021/09/28 05:29:18;;;;;;;5.97;2.22;;;;;;;7.91;100.00;101662.88;5023831;28;20378;-74
2021/09/28 05:31:47;;;;;;;9.52;2.65;;;;;;;8.04;100.00;101668.88;5022850;28;20041;-73
2021/09/28 05:34:16;;;;;;;10.50;2.85;;;;;;;8.10;100.00;101670.19;5024531;28;20072;-73
2021/09/28 05:36:44;;;;;;;10.10;3.10;;;;;;;7.99;100.00;101664.91;5025842;28;20037;-74
2021/09/28 05:39:13;;;;;;;12.18;2.58;;;;;;;7.87;100.00;101658.78;5023270;28;20231;-74
2021/09/28 05:41:41;;;;;;;9.32;3.90;;;;;;;8.00;100.00;101671.94;5023636;28;20051;-74
2021/09/28 05:44:09;;;;;;;9.35;2.45;;;;;;;7.88;100.00;101673.75;5027568;28;20045;-74
2021/09/28 05:46:37;;;;;;;9.57;2.53;;;;;;;7.95;100.00;101672.28;5023160;28;20441;-73
2021/09/28 05:49:05;;;;;;;5.68;2.72;;;;;;;8.08;100.00;101670.31;5024631;28;20428;-73
2021/09/28 05:51:35;;;;;;;7.30;3.05;;;;;;;8.17;100.00;101667.88;5027223;28;20045;-74
2021/09/28 05:54:05;;;;;;;5.32;2.45;;;;;;;8.27;100.00;101666.97;5026398;28;20053;-73
2021/09/28 05:56:34;;;;;;;7.57;2.65;;;;;;;8.30;100.00;101670.38;5026005;28;20049;-73
2021/09/28 05:59:03;;;;;;;5.57;2.47;;;;;;;8.38;100.00;101665.25;5023384;28;20049;-73
2021/09/28 06:01:30;;;;;;;9.32;2.90;;;;;;;8.47;100.00;101667.16;5026209;28;20069;-74
2021/09/28 06:03:59;;;;;;;6.22;2.95;;;;;;;8.67;100.00;101664.66;5026224;28;20038;-74
2021/09/28 06:06:27;;;;;;;7.03;2.40;;;;;;;8.71;100.00;101658.09;5024155;28;20080;-73
2021/09/28 06:08:55;;;;;;;7.60;2.83;;;;;;;8.78;100.00;101670.75;5022498;28;20107;-74
2021/09/28 06:11:23;;;;;;;12.43;3.03;;;;;;;8.87;100.00;101663.78;5025659;28;20049;-74
2021/09/28 06:13:52;;;;;;;7.25;2.67;;;;;;;9.20;100.00;101661.88;5025165;28;20438;-73
2021/09/28 06:16:20;;;;;;;5.10;2.33;;;;;;;9.25;100.00;101659.63;5025493;28;20334;-74
2021/09/28 06:18:48;;;;;;;7.07;2.88;;;;;;;9.35;100.00;101657.00;5021039;28;20103;-74
2021/09/28 06:21:16;;;;;;;7.85;2.53;;;;;;;9.57;100.00;101649.78;5024688;28;20045;-74
2021/09/28 06:23:44;;;;;;;5.28;2.40;;;;;;;9.75;100.00;101647.28;5023722;28;20076;-74
2021/09/28 06:26:12;;;;;;;6.15;1.92;;;;;;;9.87;100.00;101656.88;5024405;28;20338;-74
2021/09/28 06:28:40;;;;;;;4.80;1.95;;;;;;;10.05;100.00;101645.50;5022868;28;20101;-74
2021/09/28 06:31:09;;;;;;;5.43;2.05;;;;;;;10.21;100.00;101643.13;5025076;28;20107;-74
2021/09/28 06:33:37;;;;;;;5.60;2.15;;;;;;;10.46;100.00;101632.88;5025776;28;20380;-74
2021/09/28 06:36:05;;;;;;;6.25;2.13;;;;;;;10.67;100.00;101630.91;5023570;28;20499;-74
2021/09/28 06:38:33;;;;;;;7.82;2.65;;;;;;;10.72;100.00;101624.25;5024622;28;20049;-74
2021/09/28 06:41:01;;;;;;;8.90;3.30;;;;;;;10.84;100.00;101625.78;5024722;28;20071;-74
2021/09/28 06:43:29;;;;;;;7.13;2.00;;;;;;;10.87;100.00;101619.31;5024735;28;20057;-74
2021/09/28 06:45:58;;;;;;;6.00;2.17;;;;;;;10.87;100.00;101627.31;5026587;28;20100;-74
2021/09/28 06:48:28;;;;;;;6.57;2.47;;;;;;;10.80;100.00;101630.59;5021143;28;20147;-74
2021/09/28 06:50:56;;;;;;;4.50;2.00;;;;;;;10.78;100.00;101626.38;5028542;28;20053;-74
2021/09/28 06:53:24;;;;;;;10.57;2.45;;;;;;;11.19;100.00;101619.75;5029123;28;20384;-74
2021/09/28 06:55:52;;;;;;;5.13;2.53;;;;;;;11.24;100.00;101627.34;5028270;28;20049;-75
2021/09/28 06:58:19;;;;;;;6.65;2.45;;;;;;;11.52;100.00;101621.97;5025357;28;20045;-74
2021/09/28 07:00:50;;;;;;;6.10;2.53;;;;;;;11.49;100.00;101620.44;5029586;28;20381;-74
2021/09/28 07:03:19;;;;;;;6.15;2.10;;;;;;;11.39;100.00;101624.16;5027527;28;20045;-74
2021/09/28 07:05:49;;;;;;;7.18;2.45;;;;;;;11.11;100.00;101621.47;5026032;28;20464;-74
2021/09/28 07:08:17;;;;;;;7.97;2.90;;;;;;;11.06;100.00;101629.06;5027688;28;20033;-74
2021/09/28 07:10:45;;;;;;;8.32;2.88;;;;;;;11.05;100.00;101622.91;5030064;28;20521;-74
2021/09/28 07:13:13;;;;;;;8.85;2.17;;;;;;;11.24;100.00;101630.00;5029160;28;20044;-74
2021/09/28 07:15:41;;;;;;;6.10;2.00;;;;;;;11.27;100.00;101621.69;5028724;28;20041;-74
2021/09/28 07:18:11;;;;;;;4.07;2.08;;;;;;;11.21;100.00;101632.97;5025250;28;20344;-75
2021/09/28 07:20:40;;;;;;;2.80;1.88;;;;;;;11.28;100.00;101639.41;5029813;28;20045;-74
2021/09/28 07:23:10;;;;;;;6.35;1.95;;;;;;;11.25;100.00;101634.34;5028522;28;20033;-74
2021/09/28 07:25:37;;;;;;;4.88;2.17;;;;;;;11.40;100.00;101636.53;5028648;28;20480;-74
2021/09/28 07:28:05;;;;;;;4.53;1.95;;;;;;;11.32;100.00;101635.44;5027620;28;20045;-74
2021/09/28 07:30:35;;;;;;;6.88;2.05;;;;;;;11.35;100.00;101640.50;5027056;28;20500;-73
2021/09/28 07:33:04;;;;;;;8.80;3.20;;;;;;;11.28;100.00;101642.06;5027808;28;20448;-74
2021/09/28 07:35:32;;;;;;;10.45;2.03;;;;;;;11.26;100.00;101645.91;5028114;28;20041;-74
2021/09/28 07:37:59;;;;;;;4.70;2.00;;;;;;;11.23;100.00;101643.50;5023335;28;20080;-74
2021/09/28 07:40:29;;;;;;;6.45;1.85;;;;;;;11.10;100.00;101639.34;5028938;28;20041;-74
2021/09/28 07:42:57;;;;;;;5.35;2.15;;;;;;;11.00;100.00;101643.88;5026779;28;20544;-74
2021/09/28 07:45:25;;;;;;;7.07;2.22;;;;;;;11.04;100.00;101647.94;5029403;28;20041;-74
2021/09/28 07:47:53;;;;;;;4.90;1.90;;;;;;;11.19;100.00;101653.66;5026699;28;20056;-74
2021/09/28 07:50:21;;;;;;;2.97;1.67;;;;;;;11.15;100.00;101650.44;5027341;28;20049;-74
2021/09/28 07:52:49;;;;;;;8.45;4.00;;;;;;;11.17;100.00;101650.28;5028076;28;20208;-74
2021/09/28 07:55:17;;;;;;;4.30;1.80;;;;;;;11.29;100.00;101650.94;5026532;28;20037;-74
2021/09/28 07:57:47;;;;;;;5.18;2.50;;;;;;;11.74;100.00;101662.66;5025998;28;20053;-74
2021/09/28 08:00:15;;;;;;;8.93;3.05;;;;;;;11.71;100.00;101653.97;5024650;28;20091;-74
2021/09/28 08:02:44;;;;;;;4.97;1.60;;;;;;;11.97;100.00;101660.47;5024866;28;20461;-74
2021/09/28 08:05:13;;;;;;;4.18;1.83;;;;;;;12.31;100.00;101657.09;5028421;28;20099;-74
2021/09/28 08:07:41;;;;;;;4.18;1.83;;;;;;;12.27;100.00;101661.91;5027427;28;20042;-74
2021/09/28 08:10:10;;;;;;;7.22;1.70;;;;;;;12.67;100.00;101655.22;5025470;28;20061;-74
2021/09/28 08:12:38;;;;;;;3.53;1.58;;;;;;;12.96;100.00;101646.00;5027231;28;20053;-74
2021/09/28 08:15:09;;;;;;;11.52;2.15;;;;;;;12.83;100.00;101643.75;5028876;28;20041;-74
2021/09/28 08:17:37;;;;;;;5.07;1.50;;;;;;;12.71;100.00;101645.84;5026654;28;20065;-74
2021/09/28 08:20:09;;;;;;;5.50;1.33;;;;;;;12.58;100.00;101650.78;5028149;28;20044;-74
2021/09/28 08:22:38;;;;;;;6.25;1.85;;;;;;;13.17;100.00;101645.63;5026838;28;20041;-74
2021/09/28 08:25:10;;;;;;;6.13;1.60;;;;;;;13.32;100.00;101639.66;5027728;28;20052;-74
2021/09/28 08:30:25;;;;;;;3.20;1.38;;;;;;;13.54;100.00;101632.91;5027258;28;20057;-74
2021/09/28 08:32:54;;;;;;;3.63;1.55;;;;;;;13.60;100.00;101626.88;5022807;28;20053;-74
2021/09/28 08:35:23;;;;;;;12.57;2.25;;;;;;;13.74;100.00;101631.59;5027020;28;20038;-74
2021/09/28 08:37:51;;;;;;;6.22;2.88;;;;;;;13.97;100.00;101628.28;5026593;28;20099;-74
2021/09/28 08:40:19;;;;;;;5.60;1.60;;;;;;;13.91;100.00;101629.78;5026404;28;20488;-74
2021/09/28 08:42:48;;;;;;;3.92;1.75;;;;;;;14.11;100.00;101632.16;5027440;28;20068;-73
2021/09/28 08:45:16;;;;;;;4.90;1.23;;;;;;;14.41;100.00;101630.66;5024570;28;20042;-74
2021/09/28 08:47:45;;;;;;;6.30;1.80;;;;;;;14.62;100.00;101622.09;5025363;28;20050;-74
2021/09/28 08:50:15;;;;;;;3.08;1.40;;;;;;;14.80;100.00;101621.09;5022930;28;20106;-74
2021/09/28 08:52:45;;;;;;;3.30;1.60;;;;;;;15.09;100.00;101620.47;5026527;28;20041;-74
2021/09/28 08:55:22;;;;;;;7.00;2.08;;;;;;;16.18;100.00;101620.56;5026131;28;20068;-74
2021/09/28 08:57:51;;;;;;;4.00;1.52;;;;;;;16.80;100.00;101613.25;5025618;28;20389;-74
2021/09/28 09:00:24;;;;;;;9.88;1.50;;;;;;;16.59;100.00;101610.44;5027083;28;20425;-74
2021/09/28 09:02:53;;;;;;;4.93;1.15;;;;;;;17.33;100.00;101604.22;5024531;28;20045;-75
2021/09/28 09:05:22;;;;;;;7.53;1.50;;;;;;;17.63;100.00;101601.47;5026870;28;20042;-74
2021/09/28 09:08:01;;;;;;;6.93;1.58;;;;;;;17.21;100.00;101607.41;5026655;28;20049;-74
2021/09/28 09:10:31;;;;;;;7.25;1.63;;;;;;;17.83;100.00;101607.94;5026426;28;20071;-74
2021/09/28 09:12:59;;;;;;;7.13;1.50;;;;;;;17.73;100.00;101607.38;5024076;28;20120;-74
2021/09/28 09:15:28;;;;;;;5.88;1.83;;;;;;;18.24;100.00;101603.75;5028762;28;20323;-74
2021/09/28 09:18:00;;;;;;;4.05;1.92;;;;;;;17.67;100.00;101617.09;5024735;28;20050;-74
2021/09/28 09:20:32;;;;;;;5.40;1.55;;;;;;;18.47;100.00;101608.94;5026585;28;20046;-74
2021/09/28 09:23:21;;;;;;;9.30;2.13;;;;;;;18.29;100.00;101605.88;5024481;28;20045;-74
2021/09/28 09:26:00;;;;;;;6.60;2.30;;;;;;;19.01;100.00;101610.16;5026337;28;20457;-73
2021/09/28 09:28:32;;;;;;;4.72;2.08;;;;;;;18.73;100.00;101597.47;5023943;28;20223;-73
2021/09/28 09:31:08;;;;;;;4.20;1.75;;;;;;;18.66;100.00;101599.28;5026185;28;20040;-74
2021/09/28 09:33:38;;;;;;;6.70;2.20;;;;;;;18.81;100.00;101599.19;5025041;28;20045;-73
2021/09/28 09:36:06;;;;;;;7.03;2.15;;;;;;;18.89;100.00;101593.63;5025936;28;20351;-73
2021/09/28 09:38:42;;;;;;;4.22;1.60;;;;;;;18.88;100.00;101596.53;5025929;28;20051;-73
2021/09/28 09:41:09;;;;;;;;;;;;;;;19.20;100.00;101588.78;5028121;28;20095;-72
2021/09/28 09:43:38;;;;;;;6.70;1.50;;;;;;;18.71;100.00;101580.59;5025317;28;19925;-74
2021/09/28 09:46:10;;;;;;;9.25;1.85;;;;;;;18.09;100.00;101571.41;5027024;28;20360;-72
2021/09/28 09:48:41;;;;;;;4.68;1.25;;;;;;;19.30;100.00;101572.16;5022435;28;20041;-75
2021/09/28 09:51:11;;;;;;;4.53;1.92;;;;;;;19.18;100.00;101570.03;5023024;28;20044;-74
2021/09/28 09:53:51;;;;;;;4.55;1.80;;;;;;;18.96;100.00;101565.78;5027044;28;20133;-75
2021/09/28 09:56:20;;;;;;;6.03;1.77;;;;;;;18.79;100.00;101574.19;5024391;28;20045;-74
2021/09/28 09:58:48;;;;;;;6.47;1.90;;;;;;;18.37;100.00;101568.72;5023029;28;20049;-74
2021/09/28 10:01:16;;;;;;;8.70;2.55;;;;;;;18.51;100.00;101566.91;5026944;28;20437;-74
2021/09/28 10:03:46;;;;;;;9.00;3.17;;;;;;;18.09;100.00;101566.00;5024209;28;20107;-74
2021/09/28 10:06:14;;;;;;;4.10;1.50;;;;;;;17.69;100.00;101560.16;5024765;28;20045;-75
2021/09/28 10:08:47;;;;;;;6.72;1.83;;;;;;;17.47;100.00;101551.25;5025253;28;20469;-74
2021/09/28 10:11:15;;;;;;;3.83;1.90;;;;;;;17.27;100.00;101559.13;5027101;28;20037;-74
2021/09/28 10:13:52;;;;;;;8.32;1.95;;;;;;;18.30;100.00;101553.47;5026466;28;20049;-74
2021/09/28 10:16:41;;;;;;;3.30;1.98;;;;;;;19.14;100.00;101555.25;5025874;28;20049;-74
2021/09/28 10:19:44;;;;;;;6.05;2.40;;;;;;;19.49;100.00;101554.28;5024332;28;20045;-72
2021/09/28 10:22:48;;;;;;;8.85;1.95;;;;;;;19.33;100.00;101545.50;5025916;28;20041;-73
2021/09/28 10:25:37;;;;;;;7.30;2.08;;;;;;;19.74;100.00;101541.00;5018579;28;20056;-72
2021/09/28 10:28:32;;;;;;;6.80;2.08;;;;;;;19.77;100.00;101546.00;5026401;28;20046;-73
2021/09/28 10:31:01;;;;;;;5.28;2.20;;;;;;;19.83;100.00;101544.38;5029694;28;20045;-73
2021/09/28 10:33:34;;;;;;;5.45;1.80;;;;;;;19.85;100.00;101532.31;5028658;28;20077;-73
2021/09/28 10:36:16;;;;;;;5.13;1.30;;;;;;;20.24;100.00;101546.06;5029310;28;20052;-75
2021/09/28 10:38:58;;;;;;;2.75;1.50;;;;;;;21.14;100.00;101529.16;5028914;28;20091;-75
2021/09/28 10:41:48;;;;;;;4.57;1.60;;;;;;;20.18;100.00;101526.03;5027160;28;20124;-72
2021/09/28 10:44:40;;;;;;;3.92;1.75;;;;;;;20.71;100.00;101524.28;5030924;28;20098;-75
2021/09/28 10:47:09;;;;;;;10.70;2.65;;;;;;;19.53;100.00;101521.16;5012981;28;20088;-74
2021/09/28 10:49:38;;;;;;;5.47;1.45;;;;;;;19.16;100.00;101520.66;5026733;28;20045;-74
2021/09/28 10:52:38;;;;;;;5.68;1.88;;;;;;;18.98;100.00;101523.94;5030879;28;20398;-74
2021/09/28 10:55:20;;;;;;;3.45;1.48;;;;;;;19.37;100.00;101506.16;5029695;28;20052;-74
2021/09/28 10:58:17;;;;;;;4.07;1.30;;;;;;;20.13;100.00;101509.59;5027352;28;20582;-74
2021/09/28 11:01:12;;;;;;;7.28;1.45;;;;;;;19.58;100.00;101510.56;5029643;28;20358;-74
2021/09/28 11:04:01;;;;;;;5.15;1.60;;;;;;;19.98;100.00;101508.97;5027425;28;20042;-74
2021/09/28 11:06:53;;;;;;;2.78;1.45;;;;;;;20.33;100.00;101504.13;5026991;28;20041;-74
2021/09/28 11:09:25;;;;;;;4.22;1.92;;;;;;;20.75;100.00;101499.25;5011774;28;20064;-75
2021/09/28 11:11:58;;;;;;;5.45;2.05;;;;;;;20.33;100.00;101489.72;5027421;28;20045;-74
2021/09/28 11:14:26;;;;;;;9.40;1.77;;;;;;;21.22;100.00;101482.72;5028223;28;20072;-74
2021/09/28 11:16:56;;;;;;;3.22;1.52;;;;;;;21.05;100.00;101481.56;5028924;28;20053;-76
2021/09/28 11:19:34;;;;;;;3.45;1.80;;;;;;;21.52;100.00;101474.00;5029577;28;20103;-73
2021/09/28 11:22:03;;;;;;;4.30;1.90;;;;;;;21.26;100.00;101462.22;5030707;28;20286;-73
2021/09/28 11:24:32;;;;;;;7.07;1.85;;;;;;;21.13;100.00;101459.59;5026446;28;20418;-74
2021/09/28 11:27:04;;;;;;;4.25;1.27;;;;;;;21.01;100.00;101455.88;5027229;28;20480;-73
2021/09/28 11:29:32;;;;;;;5.03;1.25;;;;;;;21.00;100.00;101456.97;5027235;28;20140;-73
2021/09/28 11:32:03;;;;;;;2.72;1.20;;;;;;;19.88;100.00;101456.00;5026069;28;20108;-73
2021/09/28 11:34:35;;;;;;;4.60;1.98;;;;;;;20.35;100.00;101449.66;5027537;28;20480;-74
2021/09/28 11:37:19;;;;;;;4.97;1.35;;;;;;;21.56;100.00;101445.34;5027738;28;20372;-73
2021/09/28 11:39:49;;;;;;;7.90;1.65;;;;;;;21.09;100.00;101431.19;5026486;28;20056;-73